Beetown, Wisconsin
Current Conditions -  °F | °C
As of 2:55 PM on Friday 31 Oct 2014 (Local Time) from KPDC Reporting Station
Clear Clear  
Wind Chill: 32°   Ceiling: Unl
Heat Index: 40°   Visibility: 10mi
Dew Point: 16°   Wind: 16mph
Humidity: 38%   Direction: 360°N
Pressure: 30.4"   Gusts: 23mph
Location:  42.8°N, 90.89°W
Report Text: KPDC 311955Z AUTO 36014G20KT 10SM CLR 05/M09 A3040 RMK AO2 T00471087
Loading
Personal Weather Stations






























Interactive Weather Map
Tropical Storm Tracking
New forecast layout! Learn more

10-Day Weather Forecast

Advertisements
Track Severe Weather on mobile